Gran Canaria Airport

GCLP | LPA

Gran Canaria Island , Canary-Islands , Spain

Thursday, October 24th, 2019 | 05:55

Weather

GCLP 240430Z 02007KT 350V050 9999 SCT030 BKN040 20/13 Q1017 NOSIG

Charts

No Charts Available

Gates

117 Available

Runways

2 Available

Events

No events for this airport


New event